Flight Track Log - Related Links

Times and Time Zones

All times are in EDT time to prevent confusion due to time zone crossing. See the SWA771 flight status page for this flight to view local times or setup timezone preferences in your user account.

Time Position Orientation Groundspeed Altitude Reporting Facility
EDT Latitude Longitude Course Direction KTS MPH feet Rate Location/Type
Tue 07:18:59 PM 36.0764 -115.0528 93° East 193 222 5,000  Level Los Angeles Center
Tue 07:19:51 PM 36.0722 -114.9725 94° East 275 316 7,000 2,032 Climbing Los Angeles Center
Tue 07:20:01 PM 36.0661 -114.9569 116° Southeast 279 321 7,100 2,833 Climbing Los Angeles Center
Tue 07:21:03 PM 35.9839 -114.9439 173° South 312 359 10,400 2,032 Climbing Los Angeles Center
Tue 07:22:05 PM 35.8986 -114.9978 207° Southwest 370 426 11,300 1,984 Climbing Los Angeles Center
Tue 07:23:07 PM 35.8944 -115.1358 268° West 376 433 14,500 2,903 Climbing Los Angeles Center
Tue 07:24:09 PM 35.8947 -115.2619 270° West 369 425 17,300 2,371 Climbing Los Angeles Center
Tue 07:25:11 PM 35.8947 -115.3914 270° West 375 432 19,400 1,854 Climbing Los Angeles Center
Tue 07:26:12 PM 35.9153 -115.5292 280° West 386 444 21,100 1,805 Climbing Los Angeles Center
Tue 07:27:14 PM 35.9747 -115.6403 303° West 386 444 23,100 1,742 Climbing Los Angeles Center
Tue 07:28:16 PM 36.0369 -115.7586 303° West 393 452 24,700 1,452 Climbing Los Angeles Center
Tue 07:29:18 PM 36.1019 -115.8797 304° West 407 468 26,100 1,839 Climbing Los Angeles Center
Tue 07:30:20 PM 36.1661 -115.9953 305° West 408 470 28,500 1,839 Climbing Los Angeles Center
Tue 07:31:22 PM 36.2258 -116.1086 303° West 400 460 29,900 1,210 Climbing Los Angeles Center
Tue 07:32:24 PM 36.2825 -116.2142 304° West 393 452 31,000 1,355 Climbing Los Angeles Center
Tue 07:33:26 PM 36.3558 -116.3511 304° West 398 458 32,700 1,403 Climbing Los Angeles Center
Tue 07:34:28 PM 36.4156 -116.4628 304° West 395 455 33,900 629 Climbing Los Angeles Center
Tue 07:35:30 PM 36.4736 -116.5722 303° West 388 447 34,000 48 Climbing Los Angeles Center
Tue 07:36:32 PM 36.5386 -116.6925 304° West 388 447 34,000  Level Los Angeles Center
Tue 07:37:34 PM 36.6153 -116.7878 315° West 405 466 34,000  Level Los Angeles Center
Tue 07:38:36 PM 36.7075 -116.8547 330° Northwest 393 452 34,000  Level Los Angeles Center
Tue 07:39:38 PM 36.8003 -116.9253 329° Northwest 390 449 34,000  Level Los Angeles Center
Tue 07:40:40 PM 36.8917 -116.9981 328° Northwest 390 449 34,000  Level Los Angeles Center
Tue 07:41:42 PM 37.0019 -117.0833 328° Northwest 389 448 34,000  Level Los Angeles Center
Tue 07:42:44 PM 37.0944 -117.1542 329° Northwest 389 448 34,000  Level Los Angeles Center
Tue 07:43:46 PM 37.1858 -117.2261 328° Northwest 388 447 34,000  Level Los Angeles Center
Tue 07:44:48 PM 37.2781 -117.2975 328° Northwest 389 448 34,000  Level Los Angeles Center
Tue 07:45:50 PM 37.3542 -117.3886 316° Northwest 397 457 34,000  Level Los Angeles Center
Tue 07:46:52 PM 37.3653 -117.5231 276° West 393 452 34,000  Level Los Angeles Center
Tue 07:47:54 PM 37.3769 -117.6592 276° West 390 449 34,000  Level Los Angeles Center
Tue 07:48:56 PM 37.3892 -117.7972 276° West 392 451 34,000  Level Los Angeles Center
Tue 07:49:58 PM 37.4044 -117.9644 277° West 396 456 34,000  Level Los Angeles Center
Tue 07:51:00 PM 37.4167 -118.1025 276° West 396 456 34,000  Level Los Angeles Center
Tue 07:52:02 PM 37.4283 -118.2439 276° West 399 459 34,000  Level Los Angeles Center
Tue 07:53:04 PM 37.4406 -118.3814 276° West 398 458 34,000  Level Los Angeles Center
Tue 07:54:06 PM 37.4528 -118.5217 276° West 401 461 34,000  Level Los Angeles Center
Tue 07:55:08 PM 37.4644 -118.6639 276° West 402 463 34,000  Level Los Angeles Center
Tue 07:56:10 PM 37.4767 -118.8047 276° West 402 463 34,000  Level Los Angeles Center
Tue 07:57:12 PM 37.4906 -118.9753 276° West 403 464 34,000  Level Los Angeles Center
Tue 07:58:25 PM 37.4994 -119.1456 274° West 408 470 34,000  Level Oakland Center
Tue 07:59:26 PM 37.5108 -119.2881 276° West 409 471 34,000  Level Oakland Center
Tue 08:00:28 PM 37.5211 -119.4292 275° West 409 471 34,000  Level Oakland Center
Tue 08:01:29 PM 37.5314 -119.5703 275° West 409 471 34,000 -98 Level Oakland Center
Tue 08:02:30 PM 37.5403 -119.7144 274° West 409 471 33,800 -585 Descending Oakland Center
Tue 08:03:32 PM 37.5506 -119.8589 275° West 410 472 32,800 -976 Descending Oakland Center
Tue 08:04:33 PM 37.5625 -119.9997 276° West 409 471 31,800 -934 Descending Oakland Center
Tue 08:05:34 PM 37.5731 -120.1431 275° West 409 471 30,900 -984 Descending Oakland Center
Tue 08:06:35 PM 37.5842 -120.3153 275° West 410 472 29,800 -1,024 Descending Oakland Center
Tue 08:07:37 PM 37.5947 -120.4575 275° West 409 471 28,800 -976 Descending Oakland Center
Tue 08:08:38 PM 37.6039 -120.6033 275° West 410 472 27,800 -1,180 Descending Oakland Center
Tue 08:09:39 PM 37.6133 -120.7472 275° West 411 473 26,400 -1,854 Descending Oakland Center
Tue 08:10:41 PM 37.6228 -120.8894 275° West 410 472 24,000 -2,341 Descending Oakland Center
Tue 08:11:42 PM 37.6192 -121.0264 268° West 393 452 21,600 -2,364 Descending Oakland Center
Tue 08:12:53 PM 37.6000 -121.1833 261° West 376 433 18,800 -2,244 Descending Northern Cal TRACON
Tue 08:13:53 PM 37.5833 -121.3000 260° West 364 419 16,700 -2,300 Descending Northern Cal TRACON
Tue 08:14:53 PM 37.5667 -121.4333 261° West 352 405 14,200 -2,286 Descending Northern Cal TRACON
Tue 08:15:59 PM 37.5500 -121.5667 261° West 342 394 11,900 -1,800 Descending Northern Cal TRACON
Tue 08:16:53 PM 37.5333 -121.6667 258° West 320 368 10,600 -1,100 Descending Northern Cal TRACON
Tue 08:17:59 PM 37.5167 -121.7667 258° West 276 318 9,700 -1,143 Descending Northern Cal TRACON
Tue 08:18:59 PM 37.5000 -121.8667 258° West 269 310 8,200 -1,350 Descending Northern Cal TRACON
Tue 08:19:59 PM 37.5000 -121.9500 270° West 258 297 7,000 -1,400 Descending Northern Cal TRACON
Tue 08:20:59 PM 37.5167 -122.0333 284° West 242 278 5,400 -1,450 Descending Northern Cal TRACON
Tue 08:21:59 PM 37.5333 -122.1000 288° West 223 257 4,100 -1,138 Descending Northern Cal TRACON
Tue 08:22:55 PM 37.5511 -122.1633 290° West 220 253 3,200 -915 Descending Oakland Center
Tue 08:23:57 PM 37.5703 -122.2228 292° West 201 231 2,300 -927 Descending Oakland Center
Tue 08:24:58 PM 37.5861 -122.2819 289° West 188 216 1,300 -934 Descending Oakland Center
Tue 08:25:59 PM 37.6025 -122.3342 292° West 152 175 400 -590 Descending Oakland Center
Tue 08:27:00 PM 37.6206 -122.3714 301° West 145 167 100 -295 Descending Oakland Center
Tue 08:28:00 PM 37.6167 -122.3667 322° Northwest  Level FlightAware Approximate
Tue 08:35:00 PM 37.6191 -122.3752 322° Northwest  Level Estimated

Login

Don't have an account? Register now (free) for customized features, flight alerts, and more!